Time;durP1;ratioP1;P1;durP2;ratioP2;P2;SDS_P1;SDS_P2;PMS_P1;PMS_P2;Temp;Humidity;BMP_temperature;BMP_pressure;BME280_temperature;BME280_humidity;BME280_pressure;Samples;Min_cycle;Max_cycle;Signal;HPM_P1;HPM_P2
2021/09/24 00:01:35;;;;;;;5.50;1.60;;;;;;;;;;5050546;28;20080;-74
2021/09/24 00:04:19;;;;;;;4.25;1.55;;;;;;;;;;5046819;28;20086;-74
2021/09/24 00:07:04;;;;;;;4.85;1.40;;;;;;;;;;5052737;28;20035;-74
2021/09/24 00:09:49;;;;;;;3.53;1.75;;;;;;;;;;5066843;28;20082;-75
2021/09/24 00:12:33;;;;;;;4.43;1.40;;;;;;;;;;5064989;28;20043;-75
2021/09/24 00:15:18;;;;;;;5.03;1.63;;;;;;;;;;5067474;28;20035;-75
2021/09/24 00:18:03;;;;;;;3.10;1.30;;;;;;;;;;5057783;28;20048;-74
2021/09/24 00:20:47;;;;;;;4.63;1.63;;;;;;;;;;5046659;28;20445;-75
2021/09/24 00:23:32;;;;;;;2.60;1.40;;;;;;;;;;5046567;28;20040;-74
2021/09/24 00:26:17;;;;;;;3.00;1.48;;;;;;;;;;5060588;28;20075;-74
2021/09/24 00:29:01;;;;;;;2.78;1.40;;;;;;;;;;5059845;28;20086;-75
2021/09/24 00:31:45;;;;;;;3.83;1.42;;;;;;;;;;5061635;28;20059;-74
2021/09/24 00:34:30;;;;;;;4.32;1.50;;;;;;;;;;5047614;28;20125;-75
2021/09/24 00:37:14;;;;;;;2.88;1.48;;;;;;;;;;5044462;28;20544;-75
2021/09/24 00:39:59;;;;;;;3.45;1.30;;;;;;;;;;5044278;28;20048;-74
2021/09/24 00:42:44;;;;;;;3.47;1.20;;;;;;;;;;5056587;28;20509;-75
2021/09/24 00:45:28;;;;;;;5.43;1.33;;;;;;;;;;5047563;28;20503;-74
2021/09/24 00:48:13;;;;;;;3.97;1.20;;;;;;;;;;5034570;28;20125;-75
2021/09/24 00:50:58;;;;;;;5.10;1.63;;;;;;;;;;5061515;28;20048;-74
2021/09/24 00:53:42;;;;;;;3.45;1.33;;;;;;;;;;5056381;28;20044;-75
2021/09/24 00:56:27;;;;;;;2.55;1.05;;;;;;;;;;5051297;28;20047;-74
2021/09/24 00:59:11;;;;;;;2.10;1.33;;;;;;;;;;5064198;28;20051;-75
2021/09/24 01:01:56;;;;;;;3.53;1.30;;;;;;;;;;5062476;28;20039;-74
2021/09/24 01:04:41;;;;;;;2.88;1.20;;;;;;;;;;5053877;28;20040;-75
2021/09/24 01:07:25;;;;;;;2.95;1.25;;;;;;;;;;5076662;28;20051;-75
2021/09/24 01:10:10;;;;;;;3.45;1.42;;;;;;;;;;5055156;28;20535;-75
2021/09/24 01:12:56;;;;;;;4.40;1.40;;;;;;;;;;5050682;28;20116;-75
2021/09/24 01:15:40;;;;;;;4.68;1.50;;;;;;;;;;5069603;28;20135;-75
2021/09/24 01:18:25;;;;;;;2.10;1.23;;;;;;;;;;5060049;28;20051;-75
2021/09/24 01:21:10;;;;;;;4.43;1.42;;;;;;;;;;5059951;28;20032;-75
2021/09/24 01:23:55;;;;;;;4.32;1.35;;;;;;;;;;5078146;28;20386;-74
2021/09/24 01:26:47;;;;;;;4.65;1.35;;;;;;;;;;5050469;28;20129;-75
2021/09/24 01:29:31;;;;;;;3.70;1.40;;;;;;;;;;5089747;28;20034;-75
2021/09/24 01:32:16;;;;;;;3.28;1.45;;;;;;;;;;5068824;28;20374;-75
2021/09/24 01:35:02;;;;;;;3.30;1.45;;;;;;;;;;5052828;28;20101;-75
2021/09/24 01:37:47;;;;;;;3.35;1.50;;;;;;;;;;5049659;28;20094;-75
2021/09/24 01:40:32;;;;;;;3.08;1.58;;;;;;;;;;5095011;28;20043;-74
2021/09/24 01:43:16;;;;;;;4.13;1.40;;;;;;;;;;5057792;28;20059;-74
2021/09/24 01:46:01;;;;;;;3.88;1.70;;;;;;;;;;5052556;28;20048;-74
2021/09/24 01:48:46;;;;;;;3.92;1.48;;;;;;;;;;5051899;28;20036;-74
2021/09/24 01:51:30;;;;;;;3.33;1.50;;;;;;;;;;5071880;28;20120;-75
2021/09/24 01:54:16;;;;;;;2.35;1.50;;;;;;;;;;5070726;28;20090;-74
2021/09/24 01:57:01;;;;;;;3.80;1.50;;;;;;;;;;5063949;28;20552;-75
2021/09/24 01:59:45;;;;;;;4.10;1.63;;;;;;;;;;5053671;28;20082;-74
2021/09/24 02:02:29;;;;;;;3.00;1.70;;;;;;;;;;5055394;28;20032;-75
2021/09/24 02:05:14;;;;;;;3.15;1.50;;;;;;;;;;5063090;28;20047;-75
2021/09/24 02:07:58;;;;;;;2.45;1.50;;;;;;;;;;5068183;28;20036;-75
2021/09/24 02:10:43;;;;;;;1.95;1.40;;;;;;;;;;5044206;28;20039;-75
2021/09/24 02:13:28;;;;;;;3.05;1.33;;;;;;;;;;5052602;28;20090;-74
2021/09/24 02:16:12;;;;;;;3.13;1.40;;;;;;;;;;5059905;28;20500;-75
2021/09/24 02:18:57;;;;;;;2.63;1.42;;;;;;;;;;5081229;28;20066;-75
2021/09/24 02:21:42;;;;;;;3.90;1.65;;;;;;;;;;5090888;28;20039;-74
2021/09/24 02:24:26;;;;;;;2.85;1.50;;;;;;;;;;5037009;28;20044;-74
2021/09/24 02:27:11;;;;;;;2.95;1.45;;;;;;;;;;5050557;28;20071;-74
2021/09/24 02:29:55;;;;;;;2.70;1.60;;;;;;;;;;5050589;28;20409;-74
2021/09/24 02:32:40;;;;;;;2.00;1.35;;;;;;;;;;5069491;28;20093;-74
2021/09/24 02:35:24;;;;;;;2.72;1.55;;;;;;;;;;5053408;28;20044;-74
2021/09/24 02:38:09;;;;;;;2.80;1.75;;;;;;;;;;5064600;28;20067;-74
2021/09/24 02:40:53;;;;;;;3.22;2.00;;;;;;;;;;5064377;28;20040;-75
2021/09/24 02:43:38;;;;;;;3.22;1.98;;;;;;;;;;5051370;28;20055;-74
2021/09/24 02:46:22;;;;;;;4.63;1.80;;;;;;;;;;5050395;28;20066;-75
2021/09/24 02:49:07;;;;;;;2.70;1.80;;;;;;;;;;5064642;28;20119;-75
2021/09/24 02:51:51;;;;;;;2.22;1.75;;;;;;;;;;5054680;28;20039;-75
2021/09/24 02:54:36;;;;;;;2.92;1.83;;;;;;;;;;5070348;28;20044;-75
2021/09/24 02:57:21;;;;;;;3.30;2.08;;;;;;;;;;5054657;28;20044;-75
2021/09/24 03:00:05;;;;;;;3.03;2.13;;;;;;;;;;5068531;28;20136;-75
2021/09/24 03:02:50;;;;;;;3.70;2.25;;;;;;;;;;5049739;28;20608;-75
2021/09/24 03:05:35;;;;;;;3.50;2.20;;;;;;;;;;5050042;28;20144;-75
2021/09/24 03:08:20;;;;;;;2.40;2.08;;;;;;;;;;5071688;28;20116;-75
2021/09/24 03:11:05;;;;;;;3.40;2.20;;;;;;;;;;5049723;28;20047;-75
2021/09/24 03:13:50;;;;;;;4.32;2.03;;;;;;;;;;5050556;28;20047;-75
2021/09/24 03:16:36;;;;;;;4.63;2.20;;;;;;;;;;5049660;28;20540;-75
2021/09/24 03:19:21;;;;;;;2.97;2.08;;;;;;;;;;5053776;28;20043;-75
2021/09/24 03:22:06;;;;;;;4.07;2.30;;;;;;;;;;5049869;28;20090;-74
2021/09/24 03:24:51;;;;;;;3.10;2.20;;;;;;;;;;5078572;28;20434;-74
2021/09/24 03:27:36;;;;;;;3.10;2.00;;;;;;;;;;5052995;28;20030;-74
2021/09/24 03:30:21;;;;;;;3.67;2.13;;;;;;;;;;5062984;28;20051;-74
2021/09/24 03:33:05;;;;;;;3.85;2.20;;;;;;;;;;5052702;28;20078;-74
2021/09/24 03:35:49;;;;;;;3.40;2.40;;;;;;;;;;5063097;28;20086;-74
2021/09/24 03:38:34;;;;;;;3.97;2.28;;;;;;;;;;5049844;28;20452;-76
2021/09/24 03:41:18;;;;;;;3.83;2.58;;;;;;;;;;5078420;28;20063;-75
2021/09/24 03:44:03;;;;;;;3.10;2.10;;;;;;;;;;5051672;28;20113;-75
2021/09/24 03:46:48;;;;;;;3.72;2.10;;;;;;;;;;5076641;28;20039;-75
2021/09/24 03:49:32;;;;;;;4.80;2.30;;;;;;;;;;5049623;28;20081;-75
2021/09/24 03:52:17;;;;;;;3.85;2.20;;;;;;;;;;5048835;28;20044;-75
2021/09/24 03:55:01;;;;;;;3.00;2.17;;;;;;;;;;5034614;28;20112;-75
2021/09/24 03:57:47;;;;;;;3.50;2.08;;;;;;;;;;5062799;28;20079;-75
2021/09/24 04:00:31;;;;;;;2.90;2.03;;;;;;;;;;5065103;28;20043;-75
2021/09/24 04:03:16;;;;;;;3.45;2.10;;;;;;;;;;5055111;28;20075;-75
2021/09/24 04:06:00;;;;;;;3.85;2.40;;;;;;;;;;5048918;28;20040;-75
2021/09/24 04:08:45;;;;;;;4.35;2.10;;;;;;;;;;5049090;28;20094;-75
2021/09/24 04:11:29;;;;;;;4.05;1.90;;;;;;;;;;5055841;28;20401;-75
2021/09/24 04:14:14;;;;;;;2.78;2.00;;;;;;;;;;5051539;28;20035;-75
2021/09/24 04:16:58;;;;;;;3.00;2.03;;;;;;;;;;5054285;28;20405;-75
2021/09/24 04:19:43;;;;;;;2.83;1.70;;;;;;;;;;5059835;28;20150;-75
2021/09/24 04:22:27;;;;;;;3.30;2.03;;;;;;;;;;5055992;28;20036;-75
2021/09/24 04:25:12;;;;;;;3.25;2.00;;;;;;;;;;5069561;28;20094;-75
2021/09/24 04:27:56;;;;;;;2.63;1.98;;;;;;;;;;5053722;28;20090;-75
2021/09/24 04:30:41;;;;;;;2.88;1.98;;;;;;;;;;5069071;28;20048;-75
2021/09/24 04:33:26;;;;;;;2.58;1.80;;;;;;;;;;5066833;28;20034;-75
2021/09/24 04:36:10;;;;;;;2.10;1.83;;;;;;;;;;5089981;28;20165;-75
2021/09/24 04:38:56;;;;;;;2.80;1.73;;;;;;;;;;5083097;28;20048;-75
2021/09/24 04:41:41;;;;;;;2.85;1.90;;;;;;;;;;5066710;28;20441;-75
2021/09/24 04:44:25;;;;;;;2.63;1.90;;;;;;;;;;5064442;28;20067;-75
2021/09/24 04:47:10;;;;;;;2.70;1.85;;;;;;;;;;5052531;28;20036;-75
2021/09/24 04:49:54;;;;;;;2.75;1.85;;;;;;;;;;5078905;28;20098;-75
2021/09/24 04:52:38;;;;;;;2.40;1.90;;;;;;;;;;5059199;28;20539;-75
2021/09/24 04:55:23;;;;;;;2.30;1.80;;;;;;;;;;5064019;28;20086;-75
2021/09/24 04:58:08;;;;;;;3.00;1.70;;;;;;;;;;5051422;28;20079;-75
2021/09/24 05:00:52;;;;;;;2.67;1.70;;;;;;;;;;5045950;28;20098;-75
2021/09/24 05:03:37;;;;;;;2.97;1.90;;;;;;;;;;5061575;28;20401;-75
2021/09/24 05:06:21;;;;;;;2.83;2.00;;;;;;;;;;5091265;28;20042;-75
2021/09/24 05:09:05;;;;;;;3.25;1.60;;;;;;;;;;5049896;28;20043;-75
2021/09/24 05:11:50;;;;;;;2.83;1.60;;;;;;;;;;5050517;28;20047;-75
2021/09/24 05:14:34;;;;;;;2.08;1.55;;;;;;;;;;5049768;28;20086;-75
2021/09/24 05:17:19;;;;;;;3.28;1.52;;;;;;;;;;5078814;28;20040;-75
2021/09/24 05:20:04;;;;;;;2.70;1.70;;;;;;;;;;5050102;28;20894;-75
2021/09/24 05:22:48;;;;;;;2.00;1.40;;;;;;;;;;5049582;28;20079;-75
2021/09/24 05:25:33;;;;;;;2.45;1.50;;;;;;;;;;5048081;28;20039;-75
2021/09/24 05:28:17;;;;;;;4.65;1.70;;;;;;;;;;5050586;28;20175;-75
2021/09/24 05:31:02;;;;;;;2.25;1.50;;;;;;;;;;5063708;28;20048;-75
2021/09/24 05:33:46;;;;;;;2.35;1.40;;;;;;;;;;5035439;28;20085;-75
2021/09/24 05:36:31;;;;;;;2.33;1.55;;;;;;;;;;5052865;28;20079;-76
2021/09/24 05:39:18;;;;;;;2.15;1.50;;;;;;;;;;5049795;28;20113;-75
2021/09/24 05:42:02;;;;;;;2.13;1.45;;;;;;;;;;5064152;28;20056;-75
2021/09/24 05:44:47;;;;;;;1.90;1.30;;;;;;;;;;5048988;28;20051;-75
2021/09/24 05:47:32;;;;;;;2.38;1.50;;;;;;;;;;5049468;28;20027;-75
2021/09/24 05:50:16;;;;;;;3.15;1.73;;;;;;;;;;5055834;28;20039;-75
2021/09/24 05:53:02;;;;;;;1.85;1.50;;;;;;;;;;5049514;28;20466;-75
2021/09/24 05:55:47;;;;;;;2.03;1.50;;;;;;;;;;5050406;28;20047;-75
2021/09/24 05:58:31;;;;;;;1.77;1.30;;;;;;;;;;5059398;28;20087;-75
2021/09/24 06:01:16;;;;;;;2.17;1.30;;;;;;;;;;5047181;28;20059;-75
2021/09/24 06:04:01;;;;;;;2.15;1.48;;;;;;;;;;5049089;28;20040;-75
2021/09/24 06:06:46;;;;;;;2.60;1.52;;;;;;;;;;5062922;28;20036;-76
2021/09/24 06:09:30;;;;;;;1.73;1.35;;;;;;;;;;5040725;28;20051;-75
2021/09/24 06:12:15;;;;;;;2.65;1.40;;;;;;;;;;5068492;28;20036;-75
2021/09/24 06:15:00;;;;;;;3.20;1.60;;;;;;;;;;5048888;28;20047;-75
2021/09/24 06:17:45;;;;;;;2.15;1.45;;;;;;;;;;5049925;28;20028;-75
2021/09/24 06:20:30;;;;;;;2.45;1.65;;;;;;;;;;5062671;28;20414;-75
2021/09/24 06:23:15;;;;;;;2.38;1.50;;;;;;;;;;5077203;28;20459;-75
2021/09/24 06:25:59;;;;;;;3.60;1.50;;;;;;;;;;5050013;28;20124;-75
2021/09/24 06:28:44;;;;;;;2.78;1.40;;;;;;;;;;5060147;28;20085;-75
2021/09/24 06:31:29;;;;;;;3.30;1.35;;;;;;;;;;5048891;28;20056;-75
2021/09/24 06:34:13;;;;;;;1.80;1.30;;;;;;;;;;5049427;28;20179;-75
2021/09/24 06:36:58;;;;;;;1.95;1.30;;;;;;;;;;5048339;28;20039;-75
2021/09/24 06:39:42;;;;;;;1.90;1.27;;;;;;;;;;5057099;28;20043;-76
2021/09/24 06:42:27;;;;;;;2.40;1.60;;;;;;;;;;5064476;28;20530;-76
2021/09/24 06:45:13;;;;;;;2.53;1.42;;;;;;;;;;5040256;28;20043;-75
2021/09/24 06:47:57;;;;;;;3.60;1.40;;;;;;;;;;5034464;28;20108;-76
2021/09/24 06:50:42;;;;;;;3.47;1.45;;;;;;;;;;5047548;28;20063;-76
2021/09/24 06:53:28;;;;;;;2.28;1.40;;;;;;;;;;5048833;28;20068;-76
2021/09/24 06:56:13;;;;;;;2.17;1.38;;;;;;;;;;5041388;28;20036;-76
2021/09/24 06:59:00;;;;;;;2.53;1.52;;;;;;;;;;5049212;28;20098;-76
2021/09/24 07:01:45;;;;;;;1.60;1.10;;;;;;;;;;5035640;28;20048;-75
2021/09/24 07:04:31;;;;;;;1.60;1.17;;;;;;;;;;5064791;28;20072;-76
2021/09/24 07:07:15;;;;;;;2.55;1.40;;;;;;;;;;5062970;28;20047;-76
2021/09/24 07:10:00;;;;;;;1.60;1.40;;;;;;;;;;5061162;28;20067;-76
2021/09/24 07:12:45;;;;;;;2.03;1.10;;;;;;;;;;5079556;28;20082;-76
2021/09/24 07:15:30;;;;;;;1.75;1.20;;;;;;;;;;5047829;28;20043;-75
2021/09/24 07:18:14;;;;;;;2.22;1.20;;;;;;;;;;5038969;28;20505;-75
2021/09/24 07:20:59;;;;;;;1.83;1.20;;;;;;;;;;5048671;28;20044;-75
2021/09/24 07:23:43;;;;;;;1.67;1.23;;;;;;;;;;5048247;28;20044;-75
2021/09/24 07:26:28;;;;;;;1.77;1.30;;;;;;;;;;5068125;28;20047;-75
2021/09/24 07:29:13;;;;;;;2.35;1.40;;;;;;;;;;5053651;28;20132;-75
2021/09/24 07:31:58;;;;;;;2.50;1.20;;;;;;;;;;5047866;28;20082;-75
2021/09/24 07:34:43;;;;;;;1.70;1.25;;;;;;;;;;5046716;28;20489;-75
2021/09/24 07:37:28;;;;;;;2.30;1.30;;;;;;;;;;5060683;28;20071;-77
2021/09/24 07:40:13;;;;;;;7.50;1.30;;;;;;;;;;5063768;28;20046;-75
2021/09/24 07:42:57;;;;;;;2.35;1.23;;;;;;;;;;5066638;28;20570;-75
2021/09/24 07:45:42;;;;;;;2.90;1.40;;;;;;;;;;5066268;28;20036;-75
2021/09/24 07:48:26;;;;;;;2.60;1.10;;;;;;;;;;5064489;28;20133;-75
2021/09/24 07:51:11;;;;;;;1.77;1.10;;;;;;;;;;5053489;28;20040;-75
2021/09/24 07:53:55;;;;;;;1.98;1.10;;;;;;;;;;5047803;28;20091;-76
2021/09/24 07:56:40;;;;;;;1.75;1.17;;;;;;;;;;5047095;28;20400;-75
2021/09/24 07:59:25;;;;;;;1.67;1.30;;;;;;;;;;5046746;28;20099;-75
2021/09/24 08:02:10;;;;;;;1.90;1.00;;;;;;;;;;5064493;28;20147;-75
2021/09/24 08:04:54;;;;;;;1.83;1.08;;;;;;;;;;5054154;28;20040;-75
2021/09/24 08:07:39;;;;;;;1.80;1.10;;;;;;;;;;5059575;28;20083;-75
2021/09/24 08:10:24;;;;;;;1.20;0.90;;;;;;;;;;5059399;28;20106;-75
2021/09/24 08:13:09;;;;;;;1.77;1.13;;;;;;;;;;5063576;28;20040;-75
2021/09/24 08:15:54;;;;;;;1.60;1.02;;;;;;;;;;5047509;28;20044;-75
2021/09/24 08:18:39;;;;;;;2.33;1.10;;;;;;;;;;5064682;28;20047;-75
2021/09/24 08:21:24;;;;;;;2.00;1.23;;;;;;;;;;5051605;28;20040;-75
2021/09/24 08:24:08;;;;;;;2.17;1.23;;;;;;;;;;5057412;28;20067;-75
2021/09/24 08:26:53;;;;;;;2.78;1.20;;;;;;;;;;5054248;28;20052;-75
2021/09/24 08:29:38;;;;;;;2.53;1.00;;;;;;;;;;5053051;28;20054;-75
2021/09/24 08:32:23;;;;;;;1.67;1.00;;;;;;;;;;5066113;28;20116;-75
2021/09/24 08:35:08;;;;;;;1.77;0.90;;;;;;;;;;5064889;28;20131;-75
2021/09/24 08:37:53;;;;;;;1.20;0.80;;;;;;;;;;5065777;28;20059;-75
2021/09/24 08:40:38;;;;;;;1.55;0.80;;;;;;;;;;5060024;28;20090;-75
2021/09/24 08:43:22;;;;;;;1.60;1.00;;;;;;;;;;5055323;28;20051;-74
2021/09/24 08:46:07;;;;;;;1.65;1.10;;;;;;;;;;5064117;28;20476;-75
2021/09/24 08:48:51;;;;;;;1.73;0.80;;;;;;;;;;5073055;28;20534;-75
2021/09/24 08:51:36;;;;;;;2.08;0.90;;;;;;;;;;5070390;28;20610;-75
2021/09/24 08:54:21;;;;;;;1.38;0.82;;;;;;;;;;5063305;28;20034;-75
2021/09/24 08:57:05;;;;;;;1.90;0.90;;;;;;;;;;5078731;28;20039;-75
2021/09/24 08:59:50;;;;;;;1.92;1.00;;;;;;;;;;5066296;28;20386;-76
2021/09/24 09:03:10;;;;;;;1.67;0.90;;;;;;;;;;5069036;28;20055;-76
2021/09/24 09:05:59;;;;;;;1.20;0.90;;;;;;;;;;5058398;28;20123;-76
2021/09/24 09:08:44;;;;;;;1.35;0.85;;;;;;;;;;5053332;28;20047;-76
2021/09/24 09:11:29;;;;;;;2.15;1.10;;;;;;;;;;5058488;28;20038;-76
2021/09/24 09:14:14;;;;;;;1.13;0.80;;;;;;;;;;5050609;28;20517;-76
2021/09/24 09:16:58;;;;;;;2.10;0.90;;;;;;;;;;5040374;28;20083;-76
2021/09/24 09:19:43;;;;;;;1.00;0.80;;;;;;;;;;5064756;28;20060;-76
2021/09/24 09:22:27;;;;;;;2.97;1.02;;;;;;;;;;5076958;28;20035;-76
2021/09/24 09:25:13;;;;;;;2.22;0.80;;;;;;;;;;5045460;28;20095;-77
2021/09/24 09:28:02;;;;;;;2.22;1.00;;;;;;;;;;5058395;28;20044;-77
2021/09/24 09:30:46;;;;;;;2.10;0.80;;;;;;;;;;5053295;28;20043;-77
2021/09/24 09:33:32;;;;;;;1.25;0.90;;;;;;;;;;5066857;28;20039;-77
2021/09/24 09:36:23;;;;;;;1.55;0.80;;;;;;;;;;5083817;28;20076;-76
2021/09/24 09:39:09;;;;;;;1.40;0.85;;;;;;;;;;5053262;28;20055;-76
2021/09/24 09:41:56;;;;;;;1.55;0.90;;;;;;;;;;5082849;28;20051;-77
2021/09/24 09:44:40;;;;;;;1.90;0.95;;;;;;;;;;5049374;28;20467;-76
2021/09/24 09:47:35;;;;;;;1.30;0.90;;;;;;;;;;5038521;28;20043;-77
2021/09/24 09:50:21;;;;;;;2.65;0.93;;;;;;;;;;5068421;28;20393;-76
2021/09/24 09:53:12;;;;;;;1.48;0.98;;;;;;;;;;5069255;28;20480;-76
2021/09/24 09:55:58;;;;;;;2.25;1.20;;;;;;;;;;5059310;28;20043;-76
2021/09/24 09:58:43;;;;;;;1.30;0.98;;;;;;;;;;5089646;28;20634;-76
2021/09/24 10:01:27;;;;;;;2.08;1.00;;;;;;;;;;5061267;28;20069;-76
2021/09/24 10:04:12;;;;;;;1.65;1.02;;;;;;;;;;5089535;28;20088;-77
2021/09/24 10:06:56;;;;;;;1.77;1.13;;;;;;;;;;5083168;28;20097;-76
2021/09/24 10:09:41;;;;;;;2.17;1.00;;;;;;;;;;5074076;28;20401;-76
2021/09/24 10:12:26;;;;;;;3.45;1.10;;;;;;;;;;5075410;28;20155;-75
2021/09/24 10:15:11;;;;;;;2.20;1.15;;;;;;;;;;5089019;28;20610;-75
2021/09/24 10:17:56;;;;;;;2.10;1.20;;;;;;;;;;5075579;28;20027;-75
2021/09/24 10:20:40;;;;;;;1.83;1.20;;;;;;;;;;5074969;28;20055;-76
2021/09/24 10:23:25;;;;;;;1.50;1.00;;;;;;;;;;5074128;28;20627;-76
2021/09/24 10:26:10;;;;;;;1.85;1.20;;;;;;;;;;5085765;28;20047;-75
2021/09/24 10:28:59;;;;;;;1.20;0.95;;;;;;;;;;5053303;28;20131;-76
2021/09/24 10:31:48;;;;;;;1.85;1.10;;;;;;;;;;5048828;28;20048;-75
2021/09/24 10:34:32;;;;;;;1.73;1.13;;;;;;;;;;5059532;28;20150;-76
2021/09/24 10:37:17;;;;;;;1.55;1.00;;;;;;;;;;5086437;28;20127;-76
2021/09/24 10:40:03;;;;;;;2.22;1.10;;;;;;;;;;5051737;28;20087;-76
2021/09/24 10:42:51;;;;;;;1.80;1.30;;;;;;;;;;5053710;28;20557;-76
2021/09/24 10:45:41;;;;;;;1.80;1.17;;;;;;;;;;5068815;28;20190;-76
2021/09/24 10:48:26;;;;;;;2.28;1.23;;;;;;;;;;5065115;28;20059;-76
2021/09/24 10:51:11;;;;;;;2.95;1.25;;;;;;;;;;5085702;28;20047;-76
2021/09/24 10:53:55;;;;;;;1.70;1.13;;;;;;;;;;5073695;28;20076;-76
2021/09/24 10:56:39;;;;;;;2.08;1.30;;;;;;;;;;5069398;28;20040;-76
2021/09/24 10:59:29;;;;;;;1.92;1.30;;;;;;;;;;5078570;28;20608;-76
2021/09/24 11:02:32;;;;;;;2.25;1.27;;;;;;;;;;5051067;28;20028;-76
2021/09/24 11:05:17;;;;;;;1.70;1.20;;;;;;;;;;5064350;28;20503;-76
2021/09/24 11:08:02;;;;;;;2.80;1.10;;;;;;;;;;5073814;28;20089;-76
2021/09/24 11:10:47;;;;;;;1.80;1.10;;;;;;;;;;5068343;28;20459;-76
2021/09/24 11:13:36;;;;;;;1.90;1.13;;;;;;;;;;5077255;28;20038;-76
2021/09/24 11:16:25;;;;;;;1.90;1.33;;;;;;;;;;5088071;28;20069;-76
2021/09/24 11:19:27;;;;;;;1.55;1.08;;;;;;;;;;5083858;28;20134;-76
2021/09/24 11:22:21;;;;;;;2.30;1.20;;;;;;;;;;5075023;28;20118;-76
2021/09/24 11:25:06;;;;;;;1.65;1.35;;;;;;;;;;5086885;28;20042;-76
2021/09/24 11:27:53;;;;;;;1.70;1.20;;;;;;;;;;5053855;28;20495;-76
2021/09/24 11:30:44;;;;;;;1.58;1.20;;;;;;;;;;5072301;28;20090;-76
2021/09/24 11:33:48;;;;;;;1.90;1.33;;;;;;;;;;5067097;28;20067;-76
2021/09/24 11:36:52;;;;;;;2.40;1.08;;;;;;;;;;5066865;28;20063;-74
2021/09/24 11:39:37;;;;;;;1.67;1.27;;;;;;;;;;5087664;28;20519;-75
2021/09/24 11:42:22;;;;;;;2.55;1.13;;;;;;;;;;5066416;28;20132;-75
2021/09/24 11:45:11;;;;;;;2.80;1.40;;;;;;;;;;5067846;28;20047;-75
2021/09/24 11:47:57;;;;;;;1.40;1.10;;;;;;;;;;5057695;28;20031;-75
2021/09/24 11:50:42;;;;;;;2.60;1.35;;;;;;;;;;5086820;28;20169;-75
2021/09/24 11:53:28;;;;;;;2.13;1.33;;;;;;;;;;5075718;28;20185;-75
2021/09/24 11:56:12;;;;;;;3.05;1.10;;;;;;;;;;5066042;28;20042;-75
2021/09/24 11:59:03;;;;;;;3.00;1.15;;;;;;;;;;5053602;28;20504;-75
2021/09/24 12:01:47;;;;;;;1.60;1.00;;;;;;;;;;5066974;28;21024;-74
2021/09/24 12:04:32;;;;;;;1.77;1.17;;;;;;;;;;5067038;28;20091;-74
2021/09/24 12:07:17;;;;;;;1.95;1.05;;;;;;;;;;5068010;28;20088;-74
2021/09/24 12:10:02;;;;;;;1.40;1.00;;;;;;;;;;5065677;28;20130;-74
2021/09/24 12:12:47;;;;;;;1.65;1.17;;;;;;;;;;5068425;28;20062;-74
2021/09/24 12:15:48;;;;;;;1.60;1.10;;;;;;;;;;5072581;28;20440;-75
2021/09/24 12:19:02;;;;;;;2.90;1.20;;;;;;;;;;5074474;28;20085;-75
2021/09/24 12:21:49;;;;;;;1.70;1.10;;;;;;;;;;5076864;28;20897;-75
2021/09/24 12:24:39;;;;;;;2.00;1.50;;;;;;;;;;5083976;28;20054;-75
2021/09/24 12:27:24;;;;;;;1.70;1.00;;;;;;;;;;5062530;28;20043;-75
2021/09/24 12:30:15;;;;;;;1.60;1.05;;;;;;;;;;5077246;28;20396;-74
2021/09/24 12:33:09;;;;;;;2.45;1.08;;;;;;;;;;5070523;28;20109;-74
2021/09/24 12:35:57;;;;;;;2.00;1.17;;;;;;;;;;5048030;28;20163;-75
2021/09/24 12:38:42;;;;;;;1.60;1.20;;;;;;;;;;5072459;28;20500;-74
2021/09/24 12:41:26;;;;;;;2.25;1.20;;;;;;;;;;5063694;28;20108;-74
2021/09/24 12:44:11;;;;;;;2.75;1.30;;;;;;;;;;5065111;28;20054;-74
2021/09/24 12:46:57;;;;;;;1.52;1.13;;;;;;;;;;5066693;28;20039;-74
2021/09/24 12:49:42;;;;;;;1.50;1.08;;;;;;;;;;5039372;28;20044;-74
2021/09/24 12:52:27;;;;;;;1.95;1.33;;;;;;;;;;5068157;28;20043;-76
2021/09/24 12:55:13;;;;;;;2.15;1.55;;;;;;;;;;5050152;28;20058;-73
2021/09/24 12:57:57;;;;;;;2.30;1.50;;;;;;;;;;5056780;28;20109;-73
2021/09/24 13:00:42;;;;;;;1.80;1.23;;;;;;;;;;5051178;28;20126;-74
2021/09/24 13:03:31;;;;;;;2.28;1.60;;;;;;;;;;5057778;28;20044;-75
2021/09/24 13:06:15;;;;;;;2.00;1.30;;;;;;;;;;5080119;28;20134;-74
2021/09/24 13:09:00;;;;;;;4.22;1.58;;;;;;;;;;5073596;28;20044;-77
2021/09/24 13:11:45;;;;;;;3.67;1.60;;;;;;;;;;5048559;28;20086;-77
2021/09/24 13:14:30;;;;;;;4.75;1.90;;;;;;;;;;5058527;28;20063;-78
2021/09/24 13:17:15;;;;;;;5.43;1.80;;;;;;;;;;5060220;28;20440;-76
2021/09/24 13:19:59;;;;;;;5.43;1.50;;;;;;;;;;5051999;28;20056;-76
2021/09/24 13:22:44;;;;;;;2.40;1.70;;;;;;;;;;5067636;28;20551;-76
2021/09/24 13:25:29;;;;;;;7.68;1.90;;;;;;;;;;5067486;28;20082;-75
2021/09/24 13:28:13;;;;;;;4.07;1.98;;;;;;;;;;5053423;28;20087;-75
2021/09/24 13:30:57;;;;;;;5.22;1.60;;;;;;;;;;5048630;28;20048;-75
2021/09/24 13:33:42;;;;;;;2.08;1.60;;;;;;;;;;5050132;28;20126;-74
2021/09/24 13:36:27;;;;;;;2.20;1.70;;;;;;;;;;5047536;28;20051;-75
2021/09/24 13:39:11;;;;;;;3.53;1.60;;;;;;;;;;5047072;28;20067;-74
2021/09/24 13:41:56;;;;;;;4.05;1.75;;;;;;;;;;5048278;28;20044;-74
2021/09/24 13:44:40;;;;;;;3.05;2.17;;;;;;;;;;5033408;28;20723;-75
2021/09/24 13:47:25;;;;;;;3.05;2.05;;;;;;;;;;5047460;28;20039;-75
2021/09/24 13:50:09;;;;;;;2.92;1.83;;;;;;;;;;5034189;28;20616;-75
2021/09/24 13:52:55;;;;;;;3.00;1.70;;;;;;;;;;5036971;28;20508;-75
2021/09/24 13:55:40;;;;;;;2.78;1.60;;;;;;;;;;5066375;28;20071;-76
2021/09/24 13:58:24;;;;;;;27.42;2.33;;;;;;;;;;5052516;28;20055;-75
2021/09/24 14:01:09;;;;;;;3.40;1.75;;;;;;;;;;5061444;28;20052;-75
2021/09/24 14:03:54;;;;;;;5.25;1.90;;;;;;;;;;5043712;28;20150;-73
2021/09/24 14:06:38;;;;;;;9.75;2.05;;;;;;;;;;5058064;28;20079;-76
2021/09/24 14:09:23;;;;;;;9.32;1.90;;;;;;;;;;5058284;28;20401;-76
2021/09/24 14:12:08;;;;;;;11.25;2.25;;;;;;;;;;5061050;28;20032;-77
2021/09/24 14:14:52;;;;;;;4.88;1.70;;;;;;;;;;5048770;28;20038;-76
2021/09/24 14:17:37;;;;;;;4.72;2.33;;;;;;;;;;5031563;28;20065;-76
2021/09/24 14:20:22;;;;;;;4.28;1.75;;;;;;;;;;5075066;28;20540;-75
2021/09/24 14:23:07;;;;;;;6.03;1.70;;;;;;;;;;5048701;28;20044;-76
2021/09/24 14:25:52;;;;;;;5.15;1.70;;;;;;;;;;5063720;28;20086;-76
2021/09/24 14:28:37;;;;;;;8.32;1.90;;;;;;;;;;5055827;28;20477;-76
2021/09/24 14:31:21;;;;;;;3.42;1.52;;;;;;;;;;5047816;28;20086;-76
2021/09/24 14:34:06;;;;;;;4.53;1.83;;;;;;;;;;5047781;28;20146;-77
2021/09/24 14:36:51;;;;;;;4.78;1.73;;;;;;;;;;5046792;28;20043;-77
2021/09/24 14:39:35;;;;;;;3.20;1.77;;;;;;;;;;5049688;28;20562;-77
2021/09/24 14:42:19;;;;;;;4.15;1.63;;;;;;;;;;5042519;28;20468;-77
2021/09/24 14:45:04;;;;;;;2.65;1.40;;;;;;;;;;5065730;28;20040;-77
2021/09/24 14:47:49;;;;;;;5.38;1.70;;;;;;;;;;5032536;28;20421;-76
2021/09/24 14:50:33;;;;;;;4.63;1.70;;;;;;;;;;5057888;28;20496;-77
2021/09/24 14:53:18;;;;;;;2.20;1.50;;;;;;;;;;5066338;28;20079;-76
2021/09/24 14:56:02;;;;;;;3.85;1.88;;;;;;;;;;5048406;28;20148;-77
2021/09/24 14:58:47;;;;;;;3.70;1.70;;;;;;;;;;5060108;28;20063;-76
2021/09/24 15:01:32;;;;;;;4.75;1.70;;;;;;;;;;5064038;28;20437;-76
2021/09/24 15:04:17;;;;;;;2.90;1.48;;;;;;;;;;5033402;28;20035;-76
2021/09/24 15:07:01;;;;;;;5.88;1.73;;;;;;;;;;5045132;28;20505;-77
2021/09/24 15:09:46;;;;;;;2.28;1.52;;;;;;;;;;5047048;28;20492;-76
2021/09/24 15:12:31;;;;;;;3.33;1.70;;;;;;;;;;5045755;28;20040;-76
2021/09/24 15:15:16;;;;;;;3.15;1.50;;;;;;;;;;5041617;28;20504;-76
2021/09/24 15:18:00;;;;;;;3.03;1.50;;;;;;;;;;5045417;28;20814;-76
2021/09/24 15:20:45;;;;;;;3.08;1.55;;;;;;;;;;5043974;28;20497;-76
2021/09/24 15:23:30;;;;;;;3.50;1.48;;;;;;;;;;5045698;28;20040;-75
2021/09/24 15:26:14;;;;;;;1.95;1.30;;;;;;;;;;5062998;28;20040;-76
2021/09/24 15:28:59;;;;;;;4.72;1.70;;;;;;;;;;5064636;28;20085;-75
2021/09/24 15:31:43;;;;;;;4.20;1.73;;;;;;;;;;5044505;28;20106;-76
2021/09/24 15:34:28;;;;;;;2.42;1.50;;;;;;;;;;5045687;28;20569;-76
2021/09/24 15:37:15;;;;;;;1.75;1.35;;;;;;;;;;5044491;28;20083;-77
2021/09/24 15:39:59;;;;;;;6.03;1.60;;;;;;;;;;5047603;28;20109;-75
2021/09/24 15:42:44;;;;;;;3.03;1.60;;;;;;;;;;5048950;28;20047;-76
2021/09/24 15:45:29;;;;;;;2.30;1.48;;;;;;;;;;5064806;28;20127;-76
2021/09/24 15:48:13;;;;;;;4.35;1.60;;;;;;;;;;5065655;28;20048;-75
2021/09/24 15:50:59;;;;;;;3.33;1.65;;;;;;;;;;5050678;28;20047;-77
2021/09/24 15:53:44;;;;;;;2.63;1.42;;;;;;;;;;5050795;28;20406;-76
2021/09/24 15:56:29;;;;;;;2.08;1.60;;;;;;;;;;5064495;28;20063;-76
2021/09/24 15:59:14;;;;;;;4.00;1.65;;;;;;;;;;5049297;28;20054;-77
2021/09/24 16:01:59;;;;;;;1.98;1.40;;;;;;;;;;5053097;28;20118;-76
2021/09/24 16:04:44;;;;;;;2.08;1.42;;;;;;;;;;5039722;28;20037;-75
2021/09/24 16:07:29;;;;;;;3.45;1.60;;;;;;;;;;5065043;28;20174;-77
2021/09/24 16:10:14;;;;;;;3.85;1.58;;;;;;;;;;5066877;28;20039;-75
2021/09/24 16:12:59;;;;;;;1.95;1.40;;;;;;;;;;5064333;28;20519;-76
2021/09/24 16:15:44;;;;;;;3.88;1.65;;;;;;;;;;5043497;28;20059;-75
2021/09/24 16:18:28;;;;;;;3.05;1.73;;;;;;;;;;5058571;28;20076;-75
2021/09/24 16:21:13;;;;;;;2.53;1.45;;;;;;;;;;5079517;28;20543;-77
2021/09/24 16:23:57;;;;;;;4.72;1.70;;;;;;;;;;5059700;28;20779;-75
2021/09/24 16:26:46;;;;;;;2.20;1.30;;;;;;;;;;5046362;28;20036;-76
2021/09/24 16:29:31;;;;;;;2.13;1.67;;;;;;;;;;5049592;28;20093;-75
2021/09/24 16:32:15;;;;;;;2.42;1.52;;;;;;;;;;5059305;28;20513;-75